Time;durP1;ratioP1;P1;durP2;ratioP2;P2;SDS_P1;SDS_P2;PMS_P1;PMS_P2;Temp;Humidity;BMP_temperature;BMP_pressure;BME280_temperature;BME280_humidity;BME280_pressure;Samples;Min_cycle;Max_cycle;Signal;HPM_P1;HPM_P2
2024/01/07 00:01:37;;;;;;;17.70;11.25;;;;;;;;;;5080454;28;20051;-79
2024/01/07 00:04:22;;;;;;;17.75;10.65;;;;;;;;;;5070767;28;20036;-79
2024/01/07 00:07:07;;;;;;;18.30;10.23;;;;;;;;;;5074615;28;20248;-79
2024/01/07 00:09:52;;;;;;;18.65;10.95;;;;;;;;;;5072653;28;20479;-81
2024/01/07 00:12:38;;;;;;;17.65;10.40;;;;;;;;;;5071260;28;20040;-79
2024/01/07 00:15:26;;;;;;;19.25;11.30;;;;;;;;;;5066092;28;20019;-80
2024/01/07 00:18:11;;;;;;;16.08;10.02;;;;;;;;;;5072277;28;20035;-80
2024/01/07 00:20:57;;;;;;;17.02;10.52;;;;;;;;;;5069874;28;20039;-79
2024/01/07 00:23:42;;;;;;;19.88;10.80;;;;;;;;;;5071321;28;20089;-80
2024/01/07 00:26:27;;;;;;;15.75;10.90;;;;;;;;;;5058377;28;20400;-80
2024/01/07 00:29:12;;;;;;;17.23;9.73;;;;;;;;;;5066281;28;20032;-80
2024/01/07 00:31:57;;;;;;;18.48;12.52;;;;;;;;;;5066225;28;20056;-79
2024/01/07 00:34:43;;;;;;;18.77;10.63;;;;;;;;;;5084538;28;20045;-80
2024/01/07 00:37:28;;;;;;;16.05;10.30;;;;;;;;;;5075625;28;20097;-80
2024/01/07 00:40:13;;;;;;;15.18;8.95;;;;;;;;;;5081631;28;20087;-79
2024/01/07 00:42:58;;;;;;;16.42;9.85;;;;;;;;;;5075956;28;20023;-79
2024/01/07 00:45:44;;;;;;;15.30;9.40;;;;;;;;;;5071028;28;20059;-79
2024/01/07 00:48:29;;;;;;;16.45;10.43;;;;;;;;;;5080247;28;20028;-74
2024/01/07 00:51:13;;;;;;;16.95;11.32;;;;;;;;;;5092236;28;20027;-79
2024/01/07 00:53:58;;;;;;;16.73;10.75;;;;;;;;;;5070408;28;20020;-79
2024/01/07 00:56:45;;;;;;;16.30;10.95;;;;;;;;;;5076147;28;20452;-80
2024/01/07 00:59:29;;;;;;;17.27;10.80;;;;;;;;;;5090570;28;20088;-79
2024/01/07 01:02:13;;;;;;;16.23;10.48;;;;;;;;;;5092585;28;20043;-78
2024/01/07 01:04:58;;;;;;;17.55;10.30;;;;;;;;;;5089448;28;20028;-78
2024/01/07 01:07:52;;;;;;;18.65;10.90;;;;;;;;;;5071778;28;20036;-79
2024/01/07 01:10:37;;;;;;;19.58;11.93;;;;;;;;;;5067108;28;20060;-78
2024/01/07 01:13:23;;;;;;;22.33;11.70;;;;;;;;;;5066863;28;20044;-78
2024/01/07 01:16:08;;;;;;;17.13;11.27;;;;;;;;;;5056375;28;20028;-78
2024/01/07 01:18:53;;;;;;;17.08;11.10;;;;;;;;;;5070366;28;20028;-78
2024/01/07 01:21:38;;;;;;;17.02;11.20;;;;;;;;;;5071189;28;20047;-78
2024/01/07 01:24:24;;;;;;;19.88;12.77;;;;;;;;;;5070595;28;20061;-80
2024/01/07 01:27:10;;;;;;;20.65;12.35;;;;;;;;;;5070263;28;20035;-80
2024/01/07 01:29:55;;;;;;;18.80;11.73;;;;;;;;;;5071562;28;20024;-80
2024/01/07 01:32:41;;;;;;;19.92;13.85;;;;;;;;;;5070735;28;20032;-80
2024/01/07 01:35:26;;;;;;;18.02;12.43;;;;;;;;;;5080213;28;20073;-80
2024/01/07 01:38:11;;;;;;;20.63;12.75;;;;;;;;;;5075105;28;20035;-80
2024/01/07 01:40:57;;;;;;;17.25;11.15;;;;;;;;;;5069428;28;20020;-80
2024/01/07 01:43:42;;;;;;;24.55;13.52;;;;;;;;;;5073233;28;20404;-80
2024/01/07 01:46:28;;;;;;;19.10;12.27;;;;;;;;;;5070861;28;20032;-80
2024/01/07 01:49:13;;;;;;;21.88;13.13;;;;;;;;;;5069372;28;20016;-80
2024/01/07 01:51:59;;;;;;;25.15;15.20;;;;;;;;;;5080093;28;20458;-79
2024/01/07 01:54:44;;;;;;;24.17;15.05;;;;;;;;;;5075804;28;20024;-79
2024/01/07 01:57:33;;;;;;;26.25;14.43;;;;;;;;;;5070794;28;20390;-79
2024/01/07 02:00:18;;;;;;;22.60;14.07;;;;;;;;;;5071138;28;20016;-79
2024/01/07 02:03:04;;;;;;;26.83;15.43;;;;;;;;;;5065083;28;20115;-79
2024/01/07 02:05:50;;;;;;;32.33;17.55;;;;;;;;;;5070222;28;20039;-79
2024/01/07 02:08:35;;;;;;;29.23;14.60;;;;;;;;;;5069848;28;20467;-79
2024/01/07 02:11:21;;;;;;;25.63;15.35;;;;;;;;;;5055104;28;20048;-79
2024/01/07 02:14:06;;;;;;;25.75;15.02;;;;;;;;;;5073835;28;20448;-79
2024/01/07 02:16:51;;;;;;;24.42;14.82;;;;;;;;;;5069319;28;20468;-80
2024/01/07 02:19:37;;;;;;;24.15;14.88;;;;;;;;;;5068399;28;20081;-79
2024/01/07 02:22:22;;;;;;;25.50;15.23;;;;;;;;;;5069613;28;20038;-79
2024/01/07 02:25:08;;;;;;;23.95;13.68;;;;;;;;;;5059642;28;20035;-79
2024/01/07 02:27:53;;;;;;;27.00;14.93;;;;;;;;;;5069559;28;20020;-79
2024/01/07 02:30:39;;;;;;;25.98;14.40;;;;;;;;;;5076292;28;20198;-79
2024/01/07 02:33:24;;;;;;;26.30;15.07;;;;;;;;;;5068519;28;20390;-79
2024/01/07 02:36:09;;;;;;;24.50;15.52;;;;;;;;;;5069693;28;20035;-79
2024/01/07 02:38:54;;;;;;;28.05;16.27;;;;;;;;;;5069098;28;20523;-80
2024/01/07 02:41:40;;;;;;;29.42;16.98;;;;;;;;;;5069252;28;20497;-81
2024/01/07 02:44:25;;;;;;;27.92;15.48;;;;;;;;;;5072097;28;20409;-79
2024/01/07 02:47:10;;;;;;;24.70;14.75;;;;;;;;;;5069585;28;20035;-79
2024/01/07 02:49:56;;;;;;;27.45;15.13;;;;;;;;;;5070308;28;20036;-79
2024/01/07 02:52:41;;;;;;;24.25;13.98;;;;;;;;;;5058163;28;20058;-79
2024/01/07 02:55:26;;;;;;;24.73;15.23;;;;;;;;;;5072220;28;20186;-79
2024/01/07 02:58:11;;;;;;;27.17;16.13;;;;;;;;;;5069641;28;20047;-78
2024/01/07 03:00:57;;;;;;;22.38;13.85;;;;;;;;;;5070687;28;20435;-78
2024/01/07 03:03:42;;;;;;;27.13;15.70;;;;;;;;;;5068089;28;20089;-78
2024/01/07 03:06:27;;;;;;;22.35;11.93;;;;;;;;;;5074497;28;20413;-80
2024/01/07 03:09:13;;;;;;;24.50;14.63;;;;;;;;;;5071759;28;20028;-79
2024/01/07 03:11:58;;;;;;;21.20;13.82;;;;;;;;;;5075509;28;20096;-79
2024/01/07 03:14:43;;;;;;;24.35;13.10;;;;;;;;;;5069716;28;20028;-79
2024/01/07 03:17:28;;;;;;;24.17;13.88;;;;;;;;;;5072247;28;20370;-79
2024/01/07 03:20:14;;;;;;;21.75;13.63;;;;;;;;;;5076734;28;20359;-78
2024/01/07 03:23:02;;;;;;;21.27;11.60;;;;;;;;;;5076159;28;20532;-79
2024/01/07 03:25:47;;;;;;;22.77;13.40;;;;;;;;;;5076596;28;20028;-79
2024/01/07 03:28:32;;;;;;;21.63;13.35;;;;;;;;;;5076948;28;20103;-78
2024/01/07 03:31:18;;;;;;;21.52;12.18;;;;;;;;;;5078183;28;20020;-79
2024/01/07 03:34:04;;;;;;;22.13;13.77;;;;;;;;;;5076352;28;20024;-79
2024/01/07 03:36:49;;;;;;;21.80;12.90;;;;;;;;;;5076359;28;20057;-79
2024/01/07 03:39:34;;;;;;;20.90;13.02;;;;;;;;;;5076119;28;20046;-79
2024/01/07 03:42:20;;;;;;;20.35;12.45;;;;;;;;;;5066196;28;20024;-79
2024/01/07 03:45:05;;;;;;;20.70;12.80;;;;;;;;;;5078252;28;20028;-79
2024/01/07 03:47:50;;;;;;;18.20;11.52;;;;;;;;;;5076053;28;20024;-80
2024/01/07 03:50:35;;;;;;;18.13;11.00;;;;;;;;;;5086563;28;20456;-79
2024/01/07 03:53:21;;;;;;;19.65;12.15;;;;;;;;;;5083251;28;20034;-80
2024/01/07 03:56:06;;;;;;;18.60;10.95;;;;;;;;;;5082529;28;20038;-80
2024/01/07 03:58:51;;;;;;;18.35;11.35;;;;;;;;;;5076463;28;20036;-79
2024/01/07 04:01:36;;;;;;;21.67;12.23;;;;;;;;;;5075542;28;20028;-79
2024/01/07 04:04:22;;;;;;;21.85;12.23;;;;;;;;;;5076966;28;20390;-79
2024/01/07 04:07:07;;;;;;;16.17;10.63;;;;;;;;;;5073137;28;20038;-80
2024/01/07 04:09:52;;;;;;;21.65;12.13;;;;;;;;;;5075879;28;20084;-79
2024/01/07 04:12:38;;;;;;;19.67;11.63;;;;;;;;;;5071613;28;20082;-81
2024/01/07 04:15:23;;;;;;;21.13;11.13;;;;;;;;;;5072203;28;20020;-78
2024/01/07 04:18:08;;;;;;;21.42;11.82;;;;;;;;;;5074507;28;20023;-79
2024/01/07 04:20:53;;;;;;;18.45;12.73;;;;;;;;;;5069905;28;20089;-79
2024/01/07 04:23:40;;;;;;;20.08;12.00;;;;;;;;;;5071979;28;20027;-78
2024/01/07 04:26:25;;;;;;;21.05;11.60;;;;;;;;;;5071355;28;20032;-79
2024/01/07 04:29:10;;;;;;;19.33;11.23;;;;;;;;;;5072906;28;20020;-79
2024/01/07 04:31:55;;;;;;;20.17;11.45;;;;;;;;;;5071355;28;20028;-79
2024/01/07 04:34:40;;;;;;;15.65;10.57;;;;;;;;;;5073814;28;20020;-80
2024/01/07 04:37:25;;;;;;;18.60;11.75;;;;;;;;;;5072250;28;20069;-78
2024/01/07 04:40:11;;;;;;;16.25;10.18;;;;;;;;;;5069190;28;20048;-78
2024/01/07 04:42:57;;;;;;;21.58;12.82;;;;;;;;;;5072329;28;20016;-79
2024/01/07 04:45:42;;;;;;;17.45;11.23;;;;;;;;;;5083000;28;20407;-78
2024/01/07 04:48:27;;;;;;;19.10;12.00;;;;;;;;;;5076713;28;20024;-79
2024/01/07 04:51:12;;;;;;;17.92;10.48;;;;;;;;;;5070147;28;20085;-78
2024/01/07 04:53:57;;;;;;;18.50;10.95;;;;;;;;;;5071179;28;20024;-78
2024/01/07 04:56:42;;;;;;;17.98;10.73;;;;;;;;;;5071971;28;20028;-77
2024/01/07 04:59:28;;;;;;;18.50;10.73;;;;;;;;;;5081584;28;20032;-78
2024/01/07 05:02:13;;;;;;;15.85;10.32;;;;;;;;;;5070950;28;20032;-77
2024/01/07 05:04:58;;;;;;;17.27;10.77;;;;;;;;;;5070840;28;20016;-78
2024/01/07 05:07:43;;;;;;;19.05;11.90;;;;;;;;;;5058208;28;20020;-80
2024/01/07 05:10:29;;;;;;;16.77;10.02;;;;;;;;;;5073689;28;20130;-80
2024/01/07 05:13:14;;;;;;;20.35;12.10;;;;;;;;;;5071716;28;20028;-81
2024/01/07 05:15:59;;;;;;;17.17;10.35;;;;;;;;;;5069622;28;20019;-80
2024/01/07 05:18:48;;;;;;;19.02;10.43;;;;;;;;;;5077938;28;20074;-80
2024/01/07 05:21:33;;;;;;;17.55;9.82;;;;;;;;;;5060372;28;20035;-81
2024/01/07 05:24:18;;;;;;;19.48;11.23;;;;;;;;;;5071159;28;20028;-80
2024/01/07 05:27:04;;;;;;;15.57;9.63;;;;;;;;;;5073238;28;20028;-81
2024/01/07 05:29:49;;;;;;;16.05;9.95;;;;;;;;;;5061180;28;20024;-80
2024/01/07 05:32:34;;;;;;;18.10;10.27;;;;;;;;;;5070739;28;20767;-80
2024/01/07 05:35:20;;;;;;;16.13;10.63;;;;;;;;;;5069298;28;20024;-79
2024/01/07 05:38:05;;;;;;;19.85;9.40;;;;;;;;;;5071319;28;20098;-79
2024/01/07 05:40:50;;;;;;;15.88;9.93;;;;;;;;;;5069189;28;20019;-80
2024/01/07 05:43:36;;;;;;;17.92;9.60;;;;;;;;;;5072454;28;20390;-80
2024/01/07 05:46:21;;;;;;;20.80;10.63;;;;;;;;;;5075307;28;20081;-79
2024/01/07 05:49:06;;;;;;;17.02;10.30;;;;;;;;;;5056639;28;20028;-79
2024/01/07 05:51:52;;;;;;;18.38;9.55;;;;;;;;;;5069840;28;20027;-80
2024/01/07 05:54:37;;;;;;;14.85;9.07;;;;;;;;;;5070497;28;20048;-79
2024/01/07 05:57:22;;;;;;;16.95;10.70;;;;;;;;;;5078341;28;20024;-78
2024/01/07 06:00:07;;;;;;;15.35;9.63;;;;;;;;;;5076200;28;20024;-79
2024/01/07 06:02:53;;;;;;;15.95;9.38;;;;;;;;;;5070647;28;20039;-78
2024/01/07 06:05:38;;;;;;;16.75;9.02;;;;;;;;;;5070492;28;20031;-78
2024/01/07 06:08:24;;;;;;;16.55;9.95;;;;;;;;;;5079100;28;20035;-79
2024/01/07 06:11:10;;;;;;;14.13;9.38;;;;;;;;;;5075096;28;20093;-78
2024/01/07 06:13:55;;;;;;;15.13;9.15;;;;;;;;;;5070351;28;20476;-78
2024/01/07 06:16:42;;;;;;;16.10;10.20;;;;;;;;;;5070895;28;20036;-78
2024/01/07 06:19:27;;;;;;;14.85;7.53;;;;;;;;;;5070944;28;20053;-78
2024/01/07 06:22:12;;;;;;;13.73;8.15;;;;;;;;;;5069605;28;20043;-80
2024/01/07 06:24:58;;;;;;;13.10;7.80;;;;;;;;;;5070625;28;20032;-79
2024/01/07 06:27:43;;;;;;;15.38;8.63;;;;;;;;;;5070465;28;20351;-80
2024/01/07 06:30:28;;;;;;;18.13;8.32;;;;;;;;;;5069430;28;20027;-78
2024/01/07 06:33:13;;;;;;;14.52;8.35;;;;;;;;;;5070011;28;20324;-79
2024/01/07 06:35:59;;;;;;;18.50;10.15;;;;;;;;;;5070783;28;20119;-79
2024/01/07 06:38:44;;;;;;;14.18;9.23;;;;;;;;;;5073717;28;20109;-79
2024/01/07 06:41:29;;;;;;;13.13;8.43;;;;;;;;;;5069318;28;20020;-80
2024/01/07 06:44:15;;;;;;;16.00;9.52;;;;;;;;;;5070267;28;20382;-80
2024/01/07 06:47:00;;;;;;;14.50;8.88;;;;;;;;;;5069681;28;20028;-80
2024/01/07 06:49:45;;;;;;;16.17;9.27;;;;;;;;;;5077482;28;20028;-80
2024/01/07 06:52:31;;;;;;;14.57;9.07;;;;;;;;;;5055725;28;20118;-78
2024/01/07 06:55:16;;;;;;;13.02;8.27;;;;;;;;;;5070108;28;20023;-78
2024/01/07 06:58:01;;;;;;;16.42;8.85;;;;;;;;;;5069063;28;20069;-79
2024/01/07 07:00:47;;;;;;;15.90;8.57;;;;;;;;;;5073749;28;20032;-79
2024/01/07 07:03:32;;;;;;;16.73;9.30;;;;;;;;;;5081254;28;20062;-79
2024/01/07 07:06:18;;;;;;;14.30;8.75;;;;;;;;;;5072323;28;20051;-78
2024/01/07 07:09:03;;;;;;;13.82;8.15;;;;;;;;;;5082052;28;20089;-78
2024/01/07 07:11:48;;;;;;;15.27;9.35;;;;;;;;;;5064887;28;20048;-78
2024/01/07 07:14:33;;;;;;;15.40;8.73;;;;;;;;;;5070670;28;20020;-79
2024/01/07 07:17:18;;;;;;;13.65;9.50;;;;;;;;;;5070630;28;20024;-78
2024/01/07 07:20:05;;;;;;;12.48;7.90;;;;;;;;;;5072819;28;20036;-78
2024/01/07 07:22:50;;;;;;;11.70;7.57;;;;;;;;;;5070611;28;20024;-77
2024/01/07 07:25:35;;;;;;;15.52;8.35;;;;;;;;;;5071433;28;20024;-77
2024/01/07 07:28:20;;;;;;;15.68;8.50;;;;;;;;;;5056224;28;20024;-78
2024/01/07 07:31:06;;;;;;;12.25;6.97;;;;;;;;;;5071729;28;20019;-77
2024/01/07 07:33:52;;;;;;;12.88;7.47;;;;;;;;;;5070435;28;20470;-77
2024/01/07 07:36:37;;;;;;;13.02;7.40;;;;;;;;;;5073064;28;20062;-81
2024/01/07 07:39:22;;;;;;;13.23;6.57;;;;;;;;;;5075014;28;20393;-79
2024/01/07 07:42:07;;;;;;;11.23;6.85;;;;;;;;;;5071695;28;20035;-76
2024/01/07 07:44:52;;;;;;;11.73;7.00;;;;;;;;;;5072228;28;20031;-76
2024/01/07 07:47:40;;;;;;;10.20;6.55;;;;;;;;;;5076526;28;20064;-76
2024/01/07 07:50:26;;;;;;;11.75;6.85;;;;;;;;;;5077401;28;20535;-76
2024/01/07 07:53:11;;;;;;;9.38;5.65;;;;;;;;;;5077755;28;20115;-80
2024/01/07 07:55:56;;;;;;;11.50;6.72;;;;;;;;;;5075701;28;20028;-81
2024/01/07 07:58:41;;;;;;;12.27;6.88;;;;;;;;;;5070290;28;20024;-80
2024/01/07 08:01:27;;;;;;;10.55;6.07;;;;;;;;;;5069640;28;20024;-80
2024/01/07 08:04:12;;;;;;;11.95;6.82;;;;;;;;;;5073036;28;20031;-80
2024/01/07 08:06:57;;;;;;;10.25;5.60;;;;;;;;;;5074331;28;20518;-81
2024/01/07 08:09:43;;;;;;;11.77;7.10;;;;;;;;;;5081399;28;20047;-81
2024/01/07 08:12:28;;;;;;;10.20;5.70;;;;;;;;;;5081556;28;20048;-84
2024/01/07 08:15:13;;;;;;;11.18;6.35;;;;;;;;;;5083358;28;20032;-79
2024/01/07 08:17:58;;;;;;;10.43;6.10;;;;;;;;;;5081886;28;20348;-80
2024/01/07 08:20:43;;;;;;;9.43;5.63;;;;;;;;;;5081063;28;20055;-84
2024/01/07 08:23:29;;;;;;;11.43;6.03;;;;;;;;;;5072615;28;20050;-83
2024/01/07 08:26:20;;;;;;;9.52;5.05;;;;;;;;;;5078475;28;20107;-81
2024/01/07 08:29:06;;;;;;;9.10;5.50;;;;;;;;;;5076684;28;20091;-80
2024/01/07 08:31:51;;;;;;;9.20;5.32;;;;;;;;;;5076046;28;20019;-79
2024/01/07 08:34:37;;;;;;;11.43;5.55;;;;;;;;;;5078183;28;20024;-81
2024/01/07 08:37:22;;;;;;;9.60;5.70;;;;;;;;;;5079663;28;20514;-80
2024/01/07 08:40:09;;;;;;;11.63;6.13;;;;;;;;;;5064241;28;20028;-82
2024/01/07 08:42:54;;;;;;;11.25;5.50;;;;;;;;;;5078744;28;20077;-84
2024/01/07 08:45:40;;;;;;;9.10;4.88;;;;;;;;;;5079323;28;20395;-80
2024/01/07 08:48:25;;;;;;;9.48;5.32;;;;;;;;;;5081158;28;20386;-79
2024/01/07 08:51:10;;;;;;;10.93;6.13;;;;;;;;;;5079392;28;20496;-88
2024/01/07 08:53:58;;;;;;;10.60;6.25;;;;;;;;;;5075617;28;20077;-82
2024/01/07 08:56:45;;;;;;;10.90;6.38;;;;;;;;;;5064018;28;20046;-82
2024/01/07 08:59:31;;;;;;;12.23;6.68;;;;;;;;;;5085135;28;20059;-85
2024/01/07 09:02:16;;;;;;;11.63;5.80;;;;;;;;;;5073021;28;20492;-84
2024/01/07 09:05:01;;;;;;;13.43;7.25;;;;;;;;;;5096903;28;20085;-83
2024/01/07 09:07:46;;;;;;;12.45;6.38;;;;;;;;;;5094572;28;20027;-82
2024/01/07 09:10:30;;;;;;;10.07;5.95;;;;;;;;;;5109081;28;20051;-85
2024/01/07 09:13:16;;;;;;;12.38;6.88;;;;;;;;;;5093901;28;20024;-86
2024/01/07 09:16:01;;;;;;;10.50;6.07;;;;;;;;;;5109696;27;20016;-84
2024/01/07 09:18:47;;;;;;;10.88;6.03;;;;;;;;;;5094748;28;20031;-85
2024/01/07 09:21:33;;;;;;;8.43;5.18;;;;;;;;;;5082542;28;20016;-85
2024/01/07 09:24:19;;;;;;;6.85;3.72;;;;;;;;;;5069300;28;20016;-85
2024/01/07 09:27:04;;;;;;;7.32;4.32;;;;;;;;;;5075851;28;20028;-85
2024/01/07 09:29:49;;;;;;;7.72;4.40;;;;;;;;;;5064334;28;20052;-86
2024/01/07 09:32:34;;;;;;;7.63;3.85;;;;;;;;;;5063400;28;20024;-87
2024/01/07 09:35:19;;;;;;;6.00;3.55;;;;;;;;;;5070507;28;20494;-85
2024/01/07 09:38:05;;;;;;;7.88;4.03;;;;;;;;;;5072324;28;20067;-84
2024/01/07 09:40:50;;;;;;;5.47;3.45;;;;;;;;;;5069295;28;20032;-86
2024/01/07 09:43:35;;;;;;;7.03;3.63;;;;;;;;;;5071346;28;20032;-86
2024/01/07 09:46:22;;;;;;;9.40;4.03;;;;;;;;;;5067585;28;20019;-85
2024/01/07 09:49:07;;;;;;;5.43;3.45;;;;;;;;;;5067302;28;20012;-85
2024/01/07 09:51:57;;;;;;;5.30;3.50;;;;;;;;;;5071170;28;20020;-85
2024/01/07 09:54:42;;;;;;;8.90;3.80;;;;;;;;;;5068979;28;20569;-86
2024/01/07 09:57:27;;;;;;;8.05;3.88;;;;;;;;;;5069820;28;20055;-86
2024/01/07 10:00:13;;;;;;;8.23;3.85;;;;;;;;;;5070542;28;20047;-85
2024/01/07 10:02:58;;;;;;;9.13;4.80;;;;;;;;;;5070668;28;20013;-85
2024/01/07 10:05:44;;;;;;;7.15;4.10;;;;;;;;;;5068834;28;20442;-83
2024/01/07 10:08:29;;;;;;;9.27;4.82;;;;;;;;;;5072120;28;20469;-82
2024/01/07 10:11:14;;;;;;;7.82;4.10;;;;;;;;;;5064901;28;20108;-86
2024/01/07 10:13:59;;;;;;;8.70;4.70;;;;;;;;;;5071418;28;20039;-84
2024/01/07 10:16:45;;;;;;;6.72;4.47;;;;;;;;;;5072078;28;20028;-88
2024/01/07 10:19:31;;;;;;;7.97;4.03;;;;;;;;;;5072951;28;20020;-85
2024/01/07 10:22:16;;;;;;;8.63;5.05;;;;;;;;;;5065268;28;20024;-84
2024/01/07 10:25:04;;;;;;;8.57;4.78;;;;;;;;;;5072201;28;20027;-84
2024/01/07 10:27:49;;;;;;;10.35;5.30;;;;;;;;;;5072077;28;20126;-84
2024/01/07 10:30:35;;;;;;;8.77;5.10;;;;;;;;;;5069403;28;20107;-85
2024/01/07 10:33:22;;;;;;;8.07;4.65;;;;;;;;;;5077749;28;20076;-85
2024/01/07 10:36:09;;;;;;;7.55;4.60;;;;;;;;;;5073276;28;20031;-86
2024/01/07 10:38:55;;;;;;;7.57;4.18;;;;;;;;;;5071651;28;20032;-86
2024/01/07 10:41:42;;;;;;;8.35;4.95;;;;;;;;;;5077907;28;20092;-85
2024/01/07 10:44:29;;;;;;;8.57;5.13;;;;;;;;;;5074859;28;20027;-84
2024/01/07 10:47:14;;;;;;;9.27;5.22;;;;;;;;;;5079450;28;20042;-86
2024/01/07 10:50:01;;;;;;;8.07;5.03;;;;;;;;;;5076299;28;20085;-86
2024/01/07 10:52:49;;;;;;;12.20;5.50;;;;;;;;;;5077275;28;20466;-87
2024/01/07 10:55:37;;;;;;;9.48;5.65;;;;;;;;;;5072089;28;20032;-86
2024/01/07 10:58:23;;;;;;;9.15;5.43;;;;;;;;;;5076194;28;20110;-86
2024/01/07 11:01:09;;;;;;;8.25;4.63;;;;;;;;;;5068812;28;20032;-87
2024/01/07 11:04:00;;;;;;;10.20;5.25;;;;;;;;;;5074661;28;20462;-88
2024/01/07 11:06:59;;;;;;;9.15;5.45;;;;;;;;;;5074214;28;20028;-87
2024/01/07 11:09:54;;;;;;;8.95;5.55;;;;;;;;;;5082875;28;20040;-88
2024/01/07 11:12:39;;;;;;;10.93;5.60;;;;;;;;;;5066417;28;20361;-83
2024/01/07 11:15:44;;;;;;;8.98;5.72;;;;;;;;;;5069316;28;20474;-84
2024/01/07 11:18:31;;;;;;;9.15;5.47;;;;;;;;;;5074676;28;20497;-85
2024/01/07 11:21:26;;;;;;;10.77;5.85;;;;;;;;;;5076712;28;20042;-83
2024/01/07 11:24:31;;;;;;;9.15;4.88;;;;;;;;;;5081864;28;20031;-83
2024/01/07 11:27:17;;;;;;;8.05;4.68;;;;;;;;;;5042957;28;20040;-84
2024/01/07 11:30:06;;;;;;;11.50;6.95;;;;;;;;;;5075086;28;20032;-83
2024/01/07 11:33:01;;;;;;;10.50;5.78;;;;;;;;;;5080118;28;20497;-84
2024/01/07 11:35:57;;;;;;;8.40;4.50;;;;;;;;;;5080043;28;20028;-82
2024/01/07 11:38:43;;;;;;;8.98;4.82;;;;;;;;;;5078631;28;20374;-90
2024/01/07 11:41:29;;;;;;;10.80;5.35;;;;;;;;;;5071009;28;20024;-83
2024/01/07 11:44:14;;;;;;;10.48;5.50;;;;;;;;;;5081861;28;20026;-82
2024/01/07 11:47:02;;;;;;;9.75;4.75;;;;;;;;;;5072035;28;20490;-83
2024/01/07 11:49:49;;;;;;;9.45;5.22;;;;;;;;;;5085456;28;20142;-84
2024/01/07 11:52:36;;;;;;;9.20;6.05;;;;;;;;;;5081822;28;20093;-83
2024/01/07 11:55:21;;;;;;;9.90;5.43;;;;;;;;;;5076947;28;20478;-82
2024/01/07 11:58:07;;;;;;;9.10;5.63;;;;;;;;;;5085175;28;20028;-84
2024/01/07 12:00:54;;;;;;;10.10;5.90;;;;;;;;;;5078509;28;20687;-83
2024/01/07 12:03:41;;;;;;;9.40;4.47;;;;;;;;;;5074350;28;20032;-83
2024/01/07 12:06:26;;;;;;;8.20;5.05;;;;;;;;;;5083096;28;20134;-87
2024/01/07 12:09:12;;;;;;;8.85;4.82;;;;;;;;;;5067368;28;20131;-83
2024/01/07 12:11:57;;;;;;;9.50;5.78;;;;;;;;;;5074856;28;20533;-83
2024/01/07 12:14:42;;;;;;;10.50;5.75;;;;;;;;;;5080220;28;20039;-85
2024/01/07 12:17:28;;;;;;;8.75;4.97;;;;;;;;;;5081046;28;20417;-81
2024/01/07 12:20:14;;;;;;;12.02;5.68;;;;;;;;;;5085754;28;20036;-76
2024/01/07 12:23:07;;;;;;;9.75;5.55;;;;;;;;;;5082739;28;20028;-77
2024/01/07 12:25:53;;;;;;;9.25;5.65;;;;;;;;;;5076984;28;20042;-80
2024/01/07 12:28:38;;;;;;;9.23;5.78;;;;;;;;;;5081658;28;20024;-81
2024/01/07 12:31:24;;;;;;;10.30;5.65;;;;;;;;;;5073588;28;20044;-78
2024/01/07 12:34:09;;;;;;;10.48;5.82;;;;;;;;;;5080489;28;20067;-80
2024/01/07 12:36:55;;;;;;;10.82;6.07;;;;;;;;;;5082631;28;20036;-84
2024/01/07 12:39:40;;;;;;;11.40;6.55;;;;;;;;;;5080028;28;20137;-79
2024/01/07 12:42:26;;;;;;;9.18;5.72;;;;;;;;;;5071316;28;20089;-80
2024/01/07 12:45:13;;;;;;;11.82;6.20;;;;;;;;;;5072428;28;20031;-79
2024/01/07 12:48:01;;;;;;;12.52;6.70;;;;;;;;;;5076338;28;20107;-80
2024/01/07 12:50:47;;;;;;;11.05;5.97;;;;;;;;;;5074428;28;20055;-80
2024/01/07 12:53:32;;;;;;;9.45;5.47;;;;;;;;;;5077020;28;20483;-79
2024/01/07 12:56:17;;;;;;;11.95;6.72;;;;;;;;;;5079555;28;20124;-80
2024/01/07 12:59:02;;;;;;;11.52;7.05;;;;;;;;;;5081839;28;20390;-82
2024/01/07 13:01:47;;;;;;;10.77;6.32;;;;;;;;;;5075360;28;20054;-79
2024/01/07 13:04:33;;;;;;;9.68;5.95;;;;;;;;;;5078938;28;20020;-81
2024/01/07 13:07:18;;;;;;;12.93;6.30;;;;;;;;;;5074557;28;20040;-80
2024/01/07 13:10:03;;;;;;;10.88;6.15;;;;;;;;;;5077055;28;20032;-82
2024/01/07 13:12:48;;;;;;;9.63;5.82;;;;;;;;;;5083110;28;20035;-83
2024/01/07 13:15:34;;;;;;;9.82;6.20;;;;;;;;;;5082867;28;20037;-85
2024/01/07 13:18:20;;;;;;;10.95;6.15;;;;;;;;;;5076541;28;20123;-85
2024/01/07 13:21:06;;;;;;;9.93;6.30;;;;;;;;;;5070467;28;20034;-79
2024/01/07 13:23:51;;;;;;;10.35;6.07;;;;;;;;;;5070520;28;20506;-79
2024/01/07 13:26:37;;;;;;;12.73;7.28;;;;;;;;;;5073439;28;20101;-79
2024/01/07 13:29:22;;;;;;;11.43;6.80;;;;;;;;;;5069855;28;20069;-79
2024/01/07 13:32:07;;;;;;;14.38;7.68;;;;;;;;;;5071115;28;20106;-79
2024/01/07 13:34:52;;;;;;;12.57;7.28;;;;;;;;;;5070934;28;20023;-79
2024/01/07 13:37:38;;;;;;;12.80;7.18;;;;;;;;;;5063043;28;20032;-79
2024/01/07 13:40:23;;;;;;;13.55;8.35;;;;;;;;;;5068868;28;20105;-79
2024/01/07 13:43:08;;;;;;;14.77;7.28;;;;;;;;;;5079593;28;20055;-77
2024/01/07 13:45:53;;;;;;;13.70;7.30;;;;;;;;;;5077354;28;20026;-79
2024/01/07 13:48:41;;;;;;;11.82;6.90;;;;;;;;;;5078101;28;20040;-79
2024/01/07 13:51:26;;;;;;;15.63;7.85;;;;;;;;;;5068613;28;20034;-80
2024/01/07 13:54:14;;;;;;;12.13;6.53;;;;;;;;;;5077138;28;20475;-83
2024/01/07 13:56:59;;;;;;;12.13;7.57;;;;;;;;;;5079096;28;20030;-84
2024/01/07 13:59:44;;;;;;;14.25;7.40;;;;;;;;;;5069901;28;20028;-83
2024/01/07 14:02:28;;;;;;;10.23;6.50;;;;;;;;;;5084645;28;20383;-83
2024/01/07 14:05:12;;;;;;;13.38;7.50;;;;;;;;;;5079212;28;20514;-80
2024/01/07 14:08:16;;;;;;;10.85;7.50;;;;;;;;;;5058130;28;20028;-82
2024/01/07 14:11:02;;;;;;;13.55;7.63;;;;;;;;;;5074450;28;20039;-84
2024/01/07 14:13:48;;;;;;;11.68;6.90;;;;;;;;;;5073688;28;20023;-84
2024/01/07 14:16:33;;;;;;;13.23;7.70;;;;;;;;;;5084507;28;20463;-83
2024/01/07 14:19:18;;;;;;;15.65;8.27;;;;;;;;;;5079864;28;20085;-81
2024/01/07 14:22:04;;;;;;;18.15;9.20;;;;;;;;;;5077957;28;20062;-84
2024/01/07 14:24:49;;;;;;;14.80;7.68;;;;;;;;;;5077653;28;20028;-83
2024/01/07 14:27:34;;;;;;;15.52;8.00;;;;;;;;;;5074539;28;20113;-84
2024/01/07 14:30:19;;;;;;;15.38;8.15;;;;;;;;;;5077831;28;20036;-84
2024/01/07 14:33:05;;;;;;;14.43;8.30;;;;;;;;;;5077493;28;20031;-86
2024/01/07 14:35:50;;;;;;;12.73;7.30;;;;;;;;;;5078308;28;20032;-84
2024/01/07 14:38:36;;;;;;;13.70;8.20;;;;;;;;;;5071981;28;20032;-85
2024/01/07 14:41:21;;;;;;;12.15;7.43;;;;;;;;;;5075008;28;20024;-86
2024/01/07 14:44:06;;;;;;;12.05;7.85;;;;;;;;;;5071618;28;20110;-86
2024/01/07 14:46:51;;;;;;;14.75;8.73;;;;;;;;;;5080191;28;20603;-84
2024/01/07 14:49:37;;;;;;;14.68;8.95;;;;;;;;;;5078522;28;20029;-83
2024/01/07 14:52:22;;;;;;;17.75;9.50;;;;;;;;;;5076442;28;20482;-86
2024/01/07 14:55:07;;;;;;;15.48;10.13;;;;;;;;;;5078634;28;20489;-85
2024/01/07 14:57:52;;;;;;;15.00;9.52;;;;;;;;;;5074456;28;20422;-85
2024/01/07 15:00:39;;;;;;;14.02;8.02;;;;;;;;;;5072317;28;20016;-87
2024/01/07 15:03:25;;;;;;;13.80;8.43;;;;;;;;;;5077239;28;20119;-84
2024/01/07 15:06:11;;;;;;;16.70;9.07;;;;;;;;;;5082010;28;20032;-84
2024/01/07 15:08:56;;;;;;;16.27;8.77;;;;;;;;;;5078481;28;20093;-85
2024/01/07 15:11:41;;;;;;;16.30;9.32;;;;;;;;;;5073294;28;20064;-83
2024/01/07 15:14:27;;;;;;;15.77;8.25;;;;;;;;;;5075345;28;20020;-85
2024/01/07 15:17:12;;;;;;;14.65;8.20;;;;;;;;;;5082896;28;20032;-86
2024/01/07 15:19:57;;;;;;;15.00;8.90;;;;;;;;;;5080846;28;20024;-84
2024/01/07 15:22:42;;;;;;;12.88;7.82;;;;;;;;;;5081900;28;20118;-82
2024/01/07 15:25:28;;;;;;;13.20;7.65;;;;;;;;;;5082698;28;20467;-86
2024/01/07 15:28:13;;;;;;;11.90;7.20;;;;;;;;;;5079759;28;20050;-83
2024/01/07 15:30:58;;;;;;;13.35;7.60;;;;;;;;;;5080190;28;20454;-85
2024/01/07 15:33:44;;;;;;;13.25;7.57;;;;;;;;;;5076208;28;20123;-83
2024/01/07 15:36:29;;;;;;;14.15;7.90;;;;;;;;;;5079707;28;20119;-87
2024/01/07 15:39:14;;;;;;;15.75;8.52;;;;;;;;;;5066411;28;20024;-84
2024/01/07 15:42:00;;;;;;;14.32;8.20;;;;;;;;;;5078356;28;20020;-84
2024/01/07 15:44:45;;;;;;;19.17;9.40;;;;;;;;;;5084063;28;20115;-87
2024/01/07 15:47:34;;;;;;;14.55;7.72;;;;;;;;;;5085553;28;20401;-88
2024/01/07 15:50:20;;;;;;;12.85;8.48;;;;;;;;;;5082663;28;20536;-88
2024/01/07 15:53:05;;;;;;;14.77;8.48;;;;;;;;;;5084705;28;20391;-89
2024/01/07 15:55:50;;;;;;;13.88;8.07;;;;;;;;;;5080911;28;20019;-86
2024/01/07 15:58:36;;;;;;;13.05;8.32;;;;;;;;;;5080341;28;20034;-83
2024/01/07 16:01:21;;;;;;;14.35;7.93;;;;;;;;;;5076937;28;20027;-83
2024/01/07 16:04:10;;;;;;;13.90;7.47;;;;;;;;;;5082060;28;20031;-83
2024/01/07 16:06:55;;;;;;;13.33;7.63;;;;;;;;;;5079105;28;20551;-83
2024/01/07 16:09:41;;;;;;;13.32;7.60;;;;;;;;;;5082843;28;20024;-84
2024/01/07 16:12:30;;;;;;;15.75;8.75;;;;;;;;;;5050202;28;20483;-78
2024/01/07 16:15:15;;;;;;;15.50;8.77;;;;;;;;;;5038031;28;20034;-82
2024/01/07 16:18:00;;;;;;;14.02;7.45;;;;;;;;;;5048568;28;20551;-83